createdAt,value
2018-06-10T00:01:49.791Z,23.98
2018-06-10T00:04:22.328Z,24.45
2018-06-10T00:06:54.110Z,23.12
2018-06-10T00:09:25.362Z,24.42
2018-06-10T00:11:55.596Z,24.30
2018-06-10T00:14:27.190Z,23.17
2018-06-10T00:17:01.254Z,24.77
2018-06-10T00:19:30.019Z,23.67
2018-06-10T00:22:02.845Z,23.80
2018-06-10T00:24:32.635Z,22.87
2018-06-10T00:27:01.303Z,24.40
2018-06-10T00:29:34.813Z,23.95
2018-06-10T00:32:04.212Z,23.02
2018-06-10T00:34:33.421Z,24.85
2018-06-10T00:37:08.881Z,24.15
2018-06-10T00:39:39.718Z,23.35
2018-06-10T00:42:08.197Z,24.48
2018-06-10T00:44:37.727Z,24.50
2018-06-10T00:47:08.309Z,25.55
2018-06-10T00:49:36.655Z,26.95
2018-06-10T00:52:05.420Z,24.08
2018-06-10T00:54:34.190Z,26.10
2018-06-10T00:57:03.294Z,23.95
2018-06-10T00:59:32.236Z,25.45
2018-06-10T01:02:03.817Z,28.12
2018-06-10T01:04:33.583Z,28.23
2018-06-10T01:07:04.595Z,24.42
2018-06-10T01:09:35.081Z,25.25
2018-06-10T01:12:07.497Z,25.85
2018-06-10T01:14:37.518Z,27.25
2018-06-10T01:17:08.619Z,28.27
2018-06-10T01:19:38.482Z,26.60
2018-06-10T01:22:08.622Z,27.00
2018-06-10T01:24:35.882Z,25.83
2018-06-10T01:27:05.922Z,24.48
2018-06-10T01:29:35.990Z,28.15
2018-06-10T01:32:05.736Z,27.35
2018-06-10T01:34:36.199Z,25.98
2018-06-10T01:37:07.783Z,25.75
2018-06-10T01:39:37.148Z,27.40
2018-06-10T01:42:06.432Z,27.00
2018-06-10T01:44:37.467Z,24.90
2018-06-10T01:47:08.091Z,25.92
2018-06-10T01:54:45.608Z,26.33
2018-06-10T01:57:16.763Z,26.67
2018-06-10T01:59:45.718Z,26.55
2018-06-10T02:02:17.521Z,26.62
2018-06-10T02:04:48.196Z,26.55
2018-06-10T02:07:17.436Z,28.92
2018-06-10T02:09:44.864Z,27.08
2018-06-10T02:12:15.025Z,26.52
2018-06-10T02:14:44.803Z,26.67
2018-06-10T02:17:15.974Z,26.42
2018-06-10T02:19:48.920Z,28.08
2018-06-10T02:22:20.574Z,28.35
2018-06-10T02:24:53.964Z,28.35
2018-06-10T02:27:22.795Z,27.90
2018-06-10T02:29:52.624Z,29.63
2018-06-10T02:32:24.025Z,26.67
2018-06-10T02:34:54.419Z,27.45
2018-06-10T02:42:36.555Z,27.80
2018-06-10T02:45:13.011Z,28.17
2018-06-10T02:47:43.141Z,28.95
2018-06-10T02:50:12.442Z,26.80
2018-06-10T02:52:42.652Z,28.70
2018-06-10T02:55:12.152Z,29.15
2018-06-10T02:57:42.607Z,29.42
2018-06-10T03:00:11.291Z,28.42
2018-06-10T03:02:41.417Z,26.48
2018-06-10T03:05:12.648Z,26.77
2018-06-10T03:07:43.875Z,28.73
2018-06-10T03:10:13.209Z,27.60
2018-06-10T03:12:43.405Z,27.02
2018-06-10T03:15:14.866Z,27.23
2018-06-10T03:17:45.156Z,28.50
2018-06-10T03:20:15.912Z,27.10
2018-06-10T03:22:48.386Z,27.40
2018-06-10T03:25:17.746Z,28.08
2018-06-10T03:27:46.791Z,27.98
2018-06-10T03:30:19.536Z,28.80
2018-06-10T03:35:25.768Z,26.52
2018-06-10T03:37:57.465Z,27.05
2018-06-10T03:40:30.108Z,28.00
2018-06-10T03:43:00.423Z,27.73
2018-06-10T03:45:31.547Z,25.77
2018-06-10T03:50:52.316Z,29.15
2018-06-10T03:53:25.551Z,29.48
2018-06-10T03:55:56.227Z,28.30
2018-06-10T03:58:29.088Z,27.98
2018-06-10T04:00:57.592Z,28.08
2018-06-10T04:03:29.196Z,28.55
2018-06-10T04:06:00.742Z,28.27
2018-06-10T04:08:31.350Z,27.67
2018-06-10T04:11:05.607Z,28.80
2018-06-10T04:13:37.085Z,31.67
2018-06-10T04:16:08.128Z,29.17
2018-06-10T04:21:13.675Z,29.33
2018-06-10T04:23:44.962Z,31.70
2018-06-10T04:26:12.414Z,30.98
2018-06-10T04:28:45.244Z,29.92
2018-06-10T04:31:14.032Z,30.50
2018-06-10T04:33:44.191Z,30.65
2018-06-10T04:36:12.503Z,28.48
2018-06-10T04:38:43.639Z,29.40
2018-06-10T04:41:13.492Z,29.20
2018-06-10T04:43:44.155Z,31.90
2018-06-10T04:46:14.817Z,29.10
2018-06-10T04:48:45.654Z,30.62
2018-06-10T04:51:14.387Z,31.75
2018-06-10T04:53:45.551Z,30.25
2018-06-10T04:56:14.290Z,29.15
2018-06-10T04:58:43.292Z,29.90
2018-06-10T05:01:12.526Z,29.83
2018-06-10T05:03:44.267Z,29.20
2018-06-10T05:06:17.665Z,30.33
2018-06-10T05:08:47.487Z,30.45
2018-06-10T05:11:16.666Z,28.90
2018-06-10T05:13:48.750Z,29.58
2018-06-10T05:16:18.340Z,30.83
2018-06-10T05:18:49.904Z,32.05
2018-06-10T05:21:18.136Z,30.42
2018-06-10T05:23:49.922Z,30.15
2018-06-10T05:26:18.635Z,31.23
2018-06-10T05:28:48.234Z,31.45
2018-06-10T05:31:18.703Z,28.17
2018-06-10T05:33:48.955Z,30.83
2018-06-10T05:36:22.957Z,28.23
2018-06-10T05:38:52.544Z,28.95
2018-06-10T05:41:22.817Z,27.62
2018-06-10T05:43:52.644Z,28.42
2018-06-10T05:46:25.991Z,28.12
2018-06-10T05:48:58.513Z,27.80
2018-06-10T05:51:29.252Z,25.80
2018-06-10T05:53:59.545Z,26.30
2018-06-10T05:56:28.039Z,26.67
2018-06-10T05:58:58.146Z,25.02
2018-06-10T06:01:27.434Z,26.40
2018-06-10T06:03:57.294Z,26.50
2018-06-10T06:06:27.798Z,26.62
2018-06-10T06:09:02.262Z,25.37
2018-06-10T06:11:33.896Z,26.08
2018-06-10T06:14:02.191Z,26.17
2018-06-10T06:16:32.491Z,26.55
2018-06-10T06:19:02.244Z,26.85
2018-06-10T06:21:35.699Z,25.62
2018-06-10T06:24:06.767Z,24.15
2018-06-10T06:26:37.350Z,22.65
2018-06-10T06:29:06.970Z,23.33
2018-06-10T06:31:35.138Z,25.10
2018-06-10T06:34:05.081Z,26.33
2018-06-10T06:36:33.239Z,25.05
2018-06-10T06:39:04.181Z,24.20
2018-06-10T06:41:32.397Z,24.08
2018-06-10T06:44:02.104Z,24.95
2018-06-10T06:46:31.079Z,23.73
2018-06-10T06:48:59.039Z,25.27
2018-06-10T06:51:26.283Z,23.47
2018-06-10T06:53:55.342Z,24.27
2018-06-10T06:56:24.678Z,21.90
2018-06-10T06:58:54.118Z,20.83
2018-06-10T07:01:22.813Z,19.95
2018-06-10T07:03:50.956Z,21.92
2018-06-10T07:06:18.498Z,21.17
2018-06-10T07:08:44.708Z,19.87
2018-06-10T07:11:10.852Z,18.07
2018-06-10T07:13:36.821Z,20.83
2018-06-10T07:16:02.861Z,19.70
2018-06-10T07:18:45.559Z,19.63
2018-06-10T07:21:13.865Z,18.42
2018-06-10T07:23:41.748Z,21.10
2018-06-10T07:26:09.499Z,18.73
2018-06-10T07:28:36.545Z,17.60
2018-06-10T07:31:04.280Z,21.23
2018-06-10T07:36:38.348Z,21.37
2018-06-10T07:39:09.748Z,21.50
2018-06-10T07:41:40.156Z,24.00
2018-06-10T07:50:25.108Z,21.27
2018-06-10T08:16:51.408Z,20.03
2018-06-10T08:19:23.415Z,21.43
2018-06-10T08:21:50.108Z,20.10
2018-06-10T08:24:16.774Z,20.00
2018-06-10T08:26:42.706Z,19.87
2018-06-10T08:29:08.625Z,19.13
2018-06-10T08:31:34.539Z,20.80
2018-06-10T08:34:00.449Z,21.40
2018-06-10T08:36:26.415Z,21.17
2018-06-10T08:38:52.319Z,21.43
2018-06-10T08:41:18.257Z,19.43
2018-06-10T08:43:44.178Z,19.67
2018-06-10T08:46:10.074Z,19.27
2018-06-10T08:48:36.046Z,19.43
2018-06-10T08:51:01.952Z,19.77
2018-06-10T08:53:27.895Z,18.87
2018-06-10T08:55:54.548Z,19.40
2018-06-10T08:58:20.466Z,20.60
2018-06-10T09:00:47.098Z,18.90
2018-06-10T09:03:13.039Z,18.00
2018-06-10T09:05:38.946Z,17.70
2018-06-10T09:08:04.885Z,18.40
2018-06-10T09:10:30.806Z,19.30
2018-06-10T09:12:56.712Z,17.03
2018-06-10T09:15:22.676Z,19.17
2018-06-10T09:17:48.595Z,18.37
2018-06-10T09:20:14.518Z,20.13
2018-06-10T09:22:40.445Z,18.70
2018-06-10T09:25:06.416Z,17.80
2018-06-10T09:27:32.350Z,19.10
2018-06-10T09:29:58.290Z,16.60
2018-06-10T09:32:24.206Z,17.87
2018-06-10T09:34:50.144Z,17.27
2018-06-10T09:37:16.078Z,16.23
2018-06-10T09:39:42.047Z,16.63
2018-06-10T09:42:08.002Z,15.57
2018-06-10T09:44:34.634Z,14.53
2018-06-10T09:47:00.546Z,14.57
2018-06-10T09:49:26.513Z,13.70
2018-06-10T09:51:52.416Z,14.47
2018-06-10T09:54:18.395Z,16.17
2018-06-10T09:56:44.326Z,14.90
2018-06-10T09:59:10.257Z,15.27
2018-06-10T10:01:36.182Z,13.67
2018-06-10T10:04:02.131Z,13.13
2018-06-10T10:06:28.085Z,13.20
2018-06-10T10:08:54.775Z,12.90
2018-06-10T10:11:20.695Z,13.47
2018-06-10T10:13:47.723Z,12.77
2018-06-10T10:16:14.454Z,13.37
2018-06-10T10:18:40.413Z,13.90
2018-06-10T10:21:06.357Z,12.77
2018-06-10T10:23:32.329Z,13.00
2018-06-10T10:25:58.305Z,12.83
2018-06-10T10:28:24.270Z,13.20
2018-06-10T10:30:50.229Z,12.10
2018-06-10T10:33:16.235Z,12.27
2018-06-10T10:35:44.271Z,12.30
2018-06-10T10:38:10.425Z,12.90
2018-06-10T10:40:36.379Z,11.53
2018-06-10T10:43:02.390Z,12.30
2018-06-10T10:45:28.343Z,12.90
2018-06-10T10:47:54.271Z,12.50
2018-06-10T10:50:20.951Z,11.90
2018-06-10T10:52:50.420Z,11.47
2018-06-10T10:55:18.572Z,11.10
2018-06-10T11:09:56.435Z,10.40
2018-06-10T11:12:22.327Z,9.90
2018-06-10T11:14:48.289Z,9.60
2018-06-10T11:17:25.509Z,10.33
2018-06-10T11:19:57.434Z,9.47
2018-06-10T11:22:25.283Z,8.70
2018-06-10T11:24:51.294Z,10.20
2018-06-10T11:27:18.858Z,9.20
2018-06-10T11:29:44.892Z,9.90
2018-06-10T11:32:12.139Z,9.27
2018-06-10T11:34:38.097Z,9.73
2018-06-10T11:37:04.069Z,9.70
2018-06-10T11:39:29.988Z,10.10
2018-06-10T11:41:55.934Z,9.60
2018-06-10T11:50:39.239Z,9.70
2018-06-10T11:53:11.901Z,8.40
2018-06-10T12:01:14.431Z,8.30
2018-06-10T12:03:43.062Z,9.23
2018-06-10T12:06:15.619Z,8.40
2018-06-10T12:08:42.764Z,11.40
2018-06-10T12:11:10.336Z,8.93
2018-06-10T12:13:38.882Z,8.33
2018-06-10T12:18:47.874Z,7.70
2018-06-10T12:27:21.082Z,8.23
2018-06-10T12:29:47.015Z,7.40
2018-06-10T12:32:12.930Z,8.57
2018-06-10T12:34:42.890Z,13.67
2018-06-10T12:37:13.222Z,8.10
2018-06-10T12:39:39.203Z,7.93
2018-06-10T12:42:06.157Z,7.73
2018-06-10T12:44:35.777Z,15.53
2018-06-10T12:47:02.888Z,7.40
2018-06-10T12:49:30.982Z,7.40
2018-06-10T12:51:59.115Z,7.67
2018-06-10T12:54:27.679Z,6.67
2018-06-10T12:57:00.402Z,8.30
2018-06-10T12:59:28.475Z,8.50
2018-06-10T13:01:55.709Z,7.33
2018-06-10T13:04:29.267Z,6.70
2018-06-10T13:12:15.378Z,9.00
2018-06-10T13:14:47.382Z,11.20
2018-06-10T13:17:17.783Z,9.37
2018-06-10T13:19:47.461Z,7.70
2018-06-10T13:22:14.884Z,7.07
2018-06-10T13:24:42.278Z,6.87
2018-06-10T13:27:10.477Z,6.73
2018-06-10T13:29:41.349Z,7.13
2018-06-10T13:32:11.341Z,7.67
2018-06-10T13:34:43.172Z,7.20
2018-06-10T13:37:15.350Z,7.50
2018-06-10T13:39:43.314Z,8.00
2018-06-10T13:42:16.236Z,6.83
2018-06-10T13:44:46.818Z,6.97
2018-06-10T13:47:14.473Z,15.47
2018-06-10T13:49:43.558Z,10.80
2018-06-10T13:52:14.894Z,12.50
2018-06-10T13:54:46.680Z,7.77
2018-06-10T13:57:12.889Z,12.50
2018-06-10T13:59:38.814Z,8.40
2018-06-10T14:02:04.738Z,9.47
2018-06-10T14:04:30.693Z,7.83
2018-06-10T14:06:56.654Z,8.20
2018-06-10T14:09:25.200Z,8.30
2018-06-10T14:11:52.388Z,19.50
2018-06-10T14:14:20.637Z,10.50
2018-06-10T14:16:46.613Z,8.07
2018-06-10T14:19:12.581Z,8.30
2018-06-10T14:21:38.569Z,7.70
2018-06-10T14:24:05.687Z,8.50
2018-06-10T14:26:31.602Z,7.60
2018-06-10T14:28:58.333Z,7.87
2018-06-10T14:31:25.049Z,7.77
2018-06-10T14:33:51.029Z,8.40
2018-06-10T14:42:23.064Z,8.13
2018-06-10T14:44:50.575Z,10.30
2018-06-10T14:47:17.237Z,14.47
2018-06-10T14:49:43.166Z,10.37
2018-06-10T14:52:09.073Z,8.70
2018-06-10T14:54:35.031Z,9.37
2018-06-10T14:57:00.939Z,9.17
2018-06-10T14:59:26.850Z,9.10
2018-06-10T15:01:52.806Z,9.10
2018-06-10T15:22:27.105Z,6.70
2018-06-10T15:24:55.474Z,8.20
2018-06-10T15:27:24.236Z,7.90
2018-06-10T15:29:51.275Z,8.40
2018-06-10T15:38:27.742Z,8.50
2018-06-10T15:40:58.819Z,9.70
2018-06-10T15:43:26.415Z,23.73
2018-06-10T15:45:56.850Z,57.97
2018-06-10T15:51:04.652Z,8.73
2018-06-10T16:23:38.901Z,25.13
2018-06-10T18:08:08.423Z,5.30
2018-06-10T18:32:57.355Z,4.70
2018-06-10T18:35:42.947Z,6.43
2018-06-10T18:38:13.598Z,6.10
2018-06-10T18:40:45.644Z,5.67
2018-06-10T18:43:13.955Z,5.70
2018-06-10T18:45:41.643Z,4.47
2018-06-10T18:48:15.043Z,5.57
2018-06-10T18:50:45.080Z,5.07
2018-06-10T18:53:15.348Z,5.27
2018-06-10T18:55:55.142Z,5.37
2018-06-10T18:58:31.747Z,5.00
2018-06-10T19:01:22.508Z,5.43
2018-06-10T19:04:00.733Z,4.77
2018-06-10T19:06:36.983Z,4.80
2018-06-10T19:09:13.221Z,4.70
2018-06-10T19:11:45.617Z,5.67
2018-06-10T19:14:19.440Z,4.47
2018-06-10T19:16:55.829Z,4.90
2018-06-10T19:19:23.382Z,5.40
2018-06-10T19:28:07.502Z,4.60
2018-06-10T19:30:50.662Z,4.50
2018-06-10T19:33:30.407Z,5.33
2018-06-10T19:36:05.220Z,4.87
2018-06-10T19:38:37.955Z,4.67
2018-06-10T19:41:14.842Z,4.63
2018-06-10T19:43:48.328Z,4.43
2018-06-10T19:46:31.500Z,4.40
2018-06-10T19:49:08.429Z,5.53
2018-06-10T19:51:43.397Z,5.30
2018-06-10T19:54:27.271Z,5.10
2018-06-10T19:59:55.082Z,5.07
2018-06-10T20:02:41.221Z,5.20
2018-06-10T20:05:16.544Z,4.70
2018-06-10T20:10:54.822Z,5.27
2018-06-10T20:16:16.067Z,5.20
2018-06-10T20:18:53.454Z,5.30
2018-06-10T20:21:34.851Z,5.30
2018-06-10T20:24:15.441Z,5.37
2018-06-10T20:27:01.602Z,5.03
2018-06-10T20:32:37.861Z,5.30
2018-06-10T20:38:30.089Z,5.93
2018-06-10T20:52:54.437Z,5.80
2018-06-10T22:43:14.449Z,6.80
2018-06-10T22:46:02.178Z,6.90
2018-06-10T22:51:46.923Z,7.50
2018-06-10T22:59:28.663Z,8.00
2018-06-10T23:02:09.768Z,7.60
2018-06-10T23:04:54.857Z,7.43
2018-06-10T23:16:11.850Z,6.57
2018-06-10T23:21:45.279Z,7.20
2018-06-10T23:24:24.799Z,7.33
2018-06-10T23:27:06.611Z,8.13
2018-06-10T23:32:37.824Z,7.90
2018-06-10T23:50:51.696Z,6.35
2018-06-10T23:53:35.627Z,7.03
2018-06-10T23:56:15.296Z,7.10
2018-06-10T23:58:55.084Z,7.17
